Terminal Aerodrome Forecast
Issued by NWS

Home | Current Version | Previous Version | Text Only | Print | Product List | Glossary On
Versions: 1 2 3 4 5 6 7 8 9 10 11 12 13 14 15 16 17 18 19 20 21
333
FTUS43 KLSX 101724
TAFSUS
TAF
KSUS 101724Z 1018/1118 28006KT 5SM -SN OVC050
     FM101900 25004KT 2SM -SN OVC015
      TEMPO 1019/1022 1SM -SN OVC010
     FM102300 00000KT 3SM -SN OVC015
     FM110200 09004KT 6SM -SN OVC025
     FM110500 07004KT P6SM OVC030=

USA.gov is the U.S. government's official web portal to all federal, state and local government web resources and services.